createdAt,value
2023-02-16T00:01:50.709Z,68.98
2023-02-16T00:04:22.993Z,68.34
2023-02-16T00:06:52.574Z,68.69
2023-02-16T00:09:21.860Z,68.75
2023-02-16T00:12:08.764Z,68.77
2023-02-16T00:14:38.931Z,68.93
2023-02-16T00:17:08.114Z,68.66
2023-02-16T00:19:40.311Z,69.15
2023-02-16T00:22:11.424Z,69.34
2023-02-16T00:24:39.952Z,69.04
2023-02-16T00:27:14.599Z,69.23
2023-02-16T00:29:45.670Z,69.61
2023-02-16T00:32:15.028Z,69.58
2023-02-16T00:34:47.240Z,69.43
2023-02-16T00:37:16.338Z,69.04
2023-02-16T00:39:45.480Z,69.03
2023-02-16T00:42:19.795Z,68.81
2023-02-16T00:44:50.499Z,68.58
2023-02-16T00:47:22.998Z,69.10
2023-02-16T00:49:55.479Z,69.10
2023-02-16T00:52:34.047Z,68.64
2023-02-16T00:55:04.277Z,68.75
2023-02-16T00:57:35.512Z,69.32
2023-02-16T01:00:08.158Z,69.27
2023-02-16T01:02:36.692Z,69.28
2023-02-16T01:05:07.039Z,69.08
2023-02-16T01:07:53.486Z,69.06
2023-02-16T01:10:39.905Z,69.56
2023-02-16T01:13:08.582Z,69.63
2023-02-16T01:15:37.889Z,69.97
2023-02-16T01:18:06.819Z,69.36
2023-02-16T01:20:37.516Z,69.23
2023-02-16T01:23:05.921Z,68.96
2023-02-16T01:25:34.476Z,68.80
2023-02-16T01:28:02.823Z,68.59
2023-02-16T01:30:31.305Z,68.56
2023-02-16T01:32:59.742Z,68.33
2023-02-16T01:35:32.752Z,67.97
2023-02-16T01:38:02.730Z,68.50
2023-02-16T01:40:39.569Z,68.75
2023-02-16T01:43:19.822Z,69.01
2023-02-16T01:45:56.458Z,69.10
2023-02-16T01:48:29.333Z,69.59
2023-02-16T01:51:04.730Z,69.50
2023-02-16T01:53:41.404Z,69.56
2023-02-16T01:56:19.590Z,69.26
2023-02-16T01:58:51.726Z,69.52
2023-02-16T02:01:53.820Z,69.52
2023-02-16T02:04:45.488Z,69.01
2023-02-16T02:07:23.374Z,69.22
2023-02-16T02:10:02.529Z,69.35
2023-02-16T02:12:38.843Z,69.61
2023-02-16T02:15:09.337Z,69.59
2023-02-16T02:17:38.443Z,69.74
2023-02-16T02:20:16.495Z,69.43
2023-02-16T02:23:33.975Z,69.69
2023-02-16T02:26:44.746Z,69.94
2023-02-16T02:29:27.631Z,70.29
2023-02-16T02:32:07.694Z,70.25
2023-02-16T02:34:53.404Z,70.75
2023-02-16T02:37:29.134Z,70.44
2023-02-16T02:40:09.886Z,70.25
2023-02-16T02:42:45.294Z,69.62
2023-02-16T02:45:18.224Z,69.76
2023-02-16T02:47:49.584Z,69.72
2023-02-16T02:50:38.790Z,69.74
2023-02-16T02:53:13.528Z,69.42
2023-02-16T02:56:03.841Z,69.40
2023-02-16T02:59:06.291Z,68.89
2023-02-16T03:01:39.993Z,69.11
2023-02-16T03:04:10.324Z,69.05
2023-02-16T03:06:41.576Z,68.97
2023-02-16T03:09:14.322Z,69.76
2023-02-16T03:12:00.913Z,69.08
2023-02-16T03:14:34.459Z,69.13
2023-02-16T03:17:25.422Z,69.12
2023-02-16T03:20:11.385Z,69.29
2023-02-16T03:22:58.478Z,69.69
2023-02-16T03:25:49.026Z,69.83
2023-02-16T03:28:38.299Z,69.87
2023-02-16T03:31:09.398Z,69.48
2023-02-16T03:33:40.194Z,70.07
2023-02-16T03:36:09.719Z,69.80
2023-02-16T03:38:39.559Z,69.66
2023-02-16T03:41:08.985Z,69.24
2023-02-16T03:43:37.391Z,69.04
2023-02-16T03:46:06.150Z,69.38
2023-02-16T03:48:34.616Z,70.00
2023-02-16T03:51:04.810Z,70.13
2023-02-16T03:53:33.482Z,69.61
2023-02-16T03:56:01.883Z,69.67
2023-02-16T03:58:30.387Z,69.97
2023-02-16T04:00:59.492Z,69.99
2023-02-16T04:03:28.010Z,70.16
2023-02-16T04:05:57.014Z,70.20
2023-02-16T04:08:26.991Z,69.57
2023-02-16T04:10:57.558Z,70.04
2023-02-16T04:13:25.190Z,69.67
2023-02-16T04:15:53.824Z,69.93
2023-02-16T04:18:22.417Z,69.57
2023-02-16T04:20:50.890Z,69.37
2023-02-16T04:23:19.168Z,69.54
2023-02-16T04:25:49.028Z,69.09
2023-02-16T04:28:17.407Z,69.04
2023-02-16T04:30:46.907Z,69.74
2023-02-16T04:33:15.478Z,69.52
2023-02-16T04:35:44.830Z,69.56
2023-02-16T04:38:13.322Z,69.16
2023-02-16T04:40:41.945Z,69.42
2023-02-16T04:43:11.787Z,69.50
2023-02-16T04:45:40.154Z,69.49
2023-02-16T04:48:08.604Z,69.57
2023-02-16T04:50:37.022Z,70.08
2023-02-16T04:53:05.381Z,69.90
2023-02-16T04:55:33.871Z,70.18
2023-02-16T04:58:03.382Z,69.74
2023-02-16T05:00:35.113Z,68.87
2023-02-16T05:03:05.000Z,68.92
2023-02-16T05:05:35.269Z,69.18
2023-02-16T05:08:04.566Z,68.71
2023-02-16T05:10:32.927Z,68.51
2023-02-16T05:13:18.552Z,68.81
2023-02-16T05:15:48.623Z,68.35
2023-02-16T05:18:17.015Z,69.12
2023-02-16T05:21:03.238Z,69.46
2023-02-16T05:23:31.787Z,69.66
2023-02-16T05:26:00.451Z,69.50
2023-02-16T05:28:28.831Z,69.96
2023-02-16T05:30:58.672Z,69.48
2023-02-16T05:33:27.073Z,68.79
2023-02-16T05:35:55.364Z,69.24
2023-02-16T05:38:23.756Z,69.21
2023-02-16T05:40:53.028Z,68.56
2023-02-16T05:43:21.459Z,69.51
2023-02-16T05:45:49.929Z,69.48
2023-02-16T05:48:19.906Z,69.33
2023-02-16T05:50:48.268Z,69.04
2023-02-16T05:53:16.743Z,68.71
2023-02-16T05:55:45.819Z,69.33
2023-02-16T05:58:14.132Z,68.72
2023-02-16T06:00:42.469Z,68.89
2023-02-16T06:03:10.874Z,68.31
2023-02-16T06:05:40.667Z,68.86
2023-02-16T06:08:09.498Z,69.23
2023-02-16T06:10:37.803Z,69.25
2023-02-16T06:13:06.262Z,69.17
2023-02-16T06:15:34.711Z,69.21
2023-02-16T06:18:11.473Z,69.14
2023-02-16T06:20:42.538Z,69.42
2023-02-16T06:23:13.490Z,69.28
2023-02-16T06:25:43.122Z,69.12
2023-02-16T06:28:11.876Z,69.14
2023-02-16T06:30:40.234Z,69.54
2023-02-16T06:33:08.586Z,70.08
2023-02-16T06:35:37.004Z,69.68
2023-02-16T06:38:06.795Z,69.21
2023-02-16T06:40:35.402Z,69.25
2023-02-16T06:43:03.741Z,68.70
2023-02-16T06:45:32.198Z,69.33
2023-02-16T06:48:00.547Z,69.57
2023-02-16T06:50:29.057Z,69.33
2023-02-16T06:52:57.755Z,69.47
2023-02-16T06:55:27.459Z,69.27
2023-02-16T06:57:55.873Z,69.38
2023-02-16T07:00:24.380Z,69.51
2023-02-16T07:02:52.779Z,69.26
2023-02-16T07:05:21.222Z,69.61
2023-02-16T07:07:49.563Z,69.68
2023-02-16T07:10:18.109Z,69.72
2023-02-16T07:12:48.118Z,69.39
2023-02-16T07:15:16.537Z,68.70
2023-02-16T07:17:44.851Z,68.63
2023-02-16T07:20:14.050Z,68.92
2023-02-16T07:22:42.376Z,69.04
2023-02-16T07:25:10.681Z,68.72
2023-02-16T07:27:39.186Z,68.77
2023-02-16T07:30:11.177Z,68.44
2023-02-16T07:32:39.662Z,69.19
2023-02-16T07:35:08.355Z,69.23
2023-02-16T07:37:36.756Z,69.52
2023-02-16T07:40:05.651Z,70.24
2023-02-16T07:42:35.467Z,70.62
2023-02-16T07:45:05.066Z,70.73
2023-02-16T07:47:35.185Z,71.25
2023-02-16T07:50:03.522Z,70.88
2023-02-16T07:52:31.868Z,71.37
2023-02-16T07:55:00.416Z,70.52
2023-02-16T07:57:30.698Z,71.10
2023-02-16T07:59:59.103Z,71.25
2023-02-16T08:02:28.201Z,70.10
2023-02-16T08:04:58.250Z,69.11
2023-02-16T08:07:26.852Z,69.40
2023-02-16T08:09:55.393Z,67.76
2023-02-16T08:12:23.768Z,66.88
2023-02-16T08:14:52.179Z,66.84
2023-02-16T08:17:20.590Z,65.33
2023-02-16T08:19:49.276Z,65.00
2023-02-16T08:22:19.658Z,64.54
2023-02-16T08:24:47.985Z,64.21
2023-02-16T08:27:16.491Z,63.74
2023-02-16T08:29:44.980Z,62.98
2023-02-16T08:32:14.836Z,61.76
2023-02-16T08:34:43.594Z,61.31
2023-02-16T08:37:13.905Z,61.41
2023-02-16T08:39:43.991Z,61.39
2023-02-16T08:42:14.430Z,62.15
2023-02-16T08:44:43.506Z,62.54
2023-02-16T08:47:12.379Z,62.17
2023-02-16T08:49:40.753Z,62.53
2023-02-16T08:52:10.362Z,62.55
2023-02-16T08:54:38.877Z,63.44
2023-02-16T08:57:08.738Z,64.04
2023-02-16T08:59:37.324Z,64.37
2023-02-16T09:02:05.723Z,64.50
2023-02-16T09:04:34.436Z,64.76
2023-02-16T09:07:02.867Z,65.08
2023-02-16T09:09:34.893Z,64.90
2023-02-16T09:12:03.354Z,65.26
2023-02-16T09:14:33.390Z,65.16
2023-02-16T09:17:02.120Z,64.82
2023-02-16T09:19:30.619Z,65.44
2023-02-16T09:21:59.016Z,64.87
2023-02-16T09:24:27.405Z,65.75
2023-02-16T09:26:55.863Z,65.62
2023-02-16T09:29:24.241Z,65.10
2023-02-16T09:31:55.907Z,65.09
2023-02-16T09:34:26.801Z,64.55
2023-02-16T09:36:56.021Z,65.38
2023-02-16T09:39:24.415Z,64.38
2023-02-16T09:42:05.201Z,63.95
2023-02-16T09:44:46.338Z,63.83
2023-02-16T09:47:24.331Z,63.93
2023-02-16T09:49:56.417Z,63.62
2023-02-16T09:52:31.701Z,63.04
2023-02-16T09:55:01.764Z,62.61
2023-02-16T09:57:44.155Z,63.54
2023-02-16T10:00:24.408Z,63.07
2023-02-16T10:03:01.171Z,63.27
2023-02-16T10:05:33.992Z,61.94
2023-02-16T10:08:07.113Z,62.38
2023-02-16T10:10:44.097Z,62.99
2023-02-16T10:13:21.983Z,62.24
2023-02-16T10:15:53.832Z,62.29
2023-02-16T10:18:30.647Z,62.16
2023-02-16T10:21:04.090Z,62.90
2023-02-16T10:23:45.713Z,62.13
2023-02-16T10:26:27.213Z,62.52
2023-02-16T10:28:58.975Z,61.82
2023-02-16T10:31:35.499Z,61.74
2023-02-16T10:34:22.617Z,61.21
2023-02-16T10:37:17.719Z,61.01
2023-02-16T10:39:53.417Z,61.54
2023-02-16T10:42:31.227Z,61.25
2023-02-16T10:45:03.763Z,61.34
2023-02-16T10:47:36.853Z,60.88
2023-02-16T10:50:12.814Z,60.13
2023-02-16T10:52:43.921Z,59.87
2023-02-16T10:55:13.546Z,59.55
2023-02-16T10:57:41.918Z,59.70
2023-02-16T11:00:16.020Z,59.14
2023-02-16T11:02:47.375Z,59.27
2023-02-16T11:05:38.826Z,59.00
2023-02-16T11:08:11.456Z,58.88
2023-02-16T11:10:48.972Z,58.60
2023-02-16T11:13:33.995Z,58.46
2023-02-16T11:16:07.383Z,58.13
2023-02-16T11:18:39.362Z,58.19
2023-02-16T11:21:12.427Z,58.08
2023-02-16T11:23:42.340Z,57.88
2023-02-16T11:26:25.288Z,57.96
2023-02-16T11:28:54.575Z,57.78
2023-02-16T11:31:29.767Z,57.56
2023-02-16T11:34:04.319Z,57.52
2023-02-16T11:36:40.484Z,57.34
2023-02-16T11:39:20.285Z,56.72
2023-02-16T11:41:52.321Z,56.24
2023-02-16T11:44:28.792Z,55.61
2023-02-16T11:46:59.361Z,55.74
2023-02-16T11:49:34.796Z,54.73
2023-02-16T11:52:21.168Z,54.58
2023-02-16T11:54:51.105Z,54.55
2023-02-16T11:57:27.094Z,54.64
2023-02-16T11:59:56.945Z,54.46
2023-02-16T12:02:56.343Z,53.94
2023-02-16T12:05:37.966Z,53.51
2023-02-16T12:08:27.094Z,52.99
2023-02-16T12:11:16.656Z,53.16
2023-02-16T12:13:57.330Z,52.67
2023-02-16T12:16:31.564Z,53.09
2023-02-16T12:19:12.774Z,52.42
2023-02-16T12:21:46.060Z,52.03
2023-02-16T12:24:29.035Z,51.95
2023-02-16T12:27:01.953Z,52.13
2023-02-16T12:29:45.212Z,52.05
2023-02-16T12:32:31.444Z,51.84
2023-02-16T12:35:14.205Z,51.63
2023-02-16T12:37:50.241Z,51.88
2023-02-16T12:40:28.986Z,51.36
2023-02-16T12:43:23.953Z,51.16
2023-02-16T12:45:57.254Z,51.02
2023-02-16T12:48:40.375Z,51.09
2023-02-16T12:51:15.399Z,50.53
2023-02-16T12:53:49.232Z,50.52
2023-02-16T12:56:26.102Z,50.53
2023-02-16T12:59:04.769Z,50.49
2023-02-16T13:01:36.976Z,50.22
2023-02-16T13:04:15.543Z,50.04
2023-02-16T13:06:50.213Z,49.47
2023-02-16T13:09:34.125Z,49.32
2023-02-16T13:12:12.824Z,49.03
2023-02-16T13:14:45.296Z,49.39
2023-02-16T13:17:19.278Z,49.60
2023-02-16T13:19:48.575Z,48.64
2023-02-16T13:23:04.664Z,48.32
2023-02-16T13:25:51.075Z,48.05
2023-02-16T13:28:40.897Z,47.59
2023-02-16T13:31:30.595Z,47.99
2023-02-16T13:34:14.892Z,47.75
2023-02-16T13:37:18.108Z,47.82
2023-02-16T13:40:06.291Z,48.30
2023-02-16T13:43:09.894Z,47.83
2023-02-16T13:45:42.685Z,47.61
2023-02-16T13:48:17.633Z,47.65
2023-02-16T13:50:47.753Z,49.72
2023-02-16T13:53:22.316Z,49.92
2023-02-16T13:55:52.915Z,50.15
2023-02-16T13:58:30.869Z,50.45
2023-02-16T14:01:20.792Z,50.27
2023-02-16T14:03:50.659Z,50.22
2023-02-16T14:06:42.900Z,50.38
2023-02-16T14:09:50.291Z,50.62
2023-02-16T14:12:21.739Z,50.58
2023-02-16T14:15:03.553Z,50.06
2023-02-16T14:17:34.623Z,50.67
2023-02-16T14:20:09.224Z,50.89
2023-02-16T14:22:48.283Z,50.49
2023-02-16T14:25:36.849Z,50.56
2023-02-16T14:28:07.511Z,50.64
2023-02-16T14:30:38.060Z,50.39
2023-02-16T14:33:20.632Z,50.39
2023-02-16T14:36:09.183Z,50.88
2023-02-16T14:38:39.082Z,51.30
2023-02-16T14:41:17.062Z,51.67
2023-02-16T14:43:47.279Z,51.41
2023-02-16T14:46:39.018Z,51.89
2023-02-16T14:49:47.219Z,51.91
2023-02-16T14:52:43.718Z,52.16
2023-02-16T14:55:42.644Z,52.27
2023-02-16T14:58:27.825Z,51.98
2023-02-16T15:01:04.237Z,52.53
2023-02-16T15:03:42.945Z,52.43
2023-02-16T15:06:21.123Z,52.58
2023-02-16T15:08:57.520Z,52.86
2023-02-16T15:11:31.642Z,52.76
2023-02-16T15:14:08.074Z,52.77
2023-02-16T15:16:41.729Z,53.07
2023-02-16T15:19:16.927Z,53.03
2023-02-16T15:21:45.713Z,53.54
2023-02-16T15:24:25.308Z,53.46
2023-02-16T15:26:57.123Z,53.93
2023-02-16T15:29:27.360Z,54.00
2023-02-16T15:31:57.193Z,54.45
2023-02-16T15:34:33.479Z,54.23
2023-02-16T15:37:03.652Z,54.69
2023-02-16T15:39:48.428Z,54.49
2023-02-16T15:42:23.812Z,54.86
2023-02-16T15:44:53.441Z,55.34
2023-02-16T15:47:24.422Z,55.51
2023-02-16T15:49:54.153Z,55.42
2023-02-16T15:52:30.435Z,55.80
2023-02-16T15:55:02.250Z,55.85
2023-02-16T15:57:33.127Z,55.66
2023-02-16T16:00:04.243Z,56.22
2023-02-16T16:02:47.665Z,56.45
2023-02-16T16:05:25.432Z,56.07
2023-02-16T16:07:56.069Z,56.28
2023-02-16T16:10:29.757Z,56.63
2023-02-16T16:13:00.725Z,57.11
2023-02-16T16:15:32.677Z,57.19
2023-02-16T16:18:02.768Z,57.13
2023-02-16T16:20:34.002Z,57.56
2023-02-16T16:23:04.823Z,57.80
2023-02-16T16:25:43.412Z,58.42
2023-02-16T16:28:15.137Z,58.25
2023-02-16T16:30:45.376Z,58.74
2023-02-16T16:33:15.940Z,59.07
2023-02-16T16:35:46.466Z,59.51
2023-02-16T16:38:26.149Z,59.45
2023-02-16T16:40:58.913Z,60.33
2023-02-16T16:43:30.804Z,60.32
2023-02-16T16:46:14.748Z,60.58
2023-02-16T16:48:46.830Z,60.48
2023-02-16T16:51:18.429Z,60.37
2023-02-16T16:53:57.432Z,60.66
2023-02-16T16:56:27.714Z,60.81
2023-02-16T16:58:58.672Z,60.72
2023-02-16T17:01:28.885Z,61.15
2023-02-16T17:03:57.463Z,61.53
2023-02-16T17:06:26.520Z,61.63
2023-02-16T17:08:55.824Z,61.46
2023-02-16T17:11:28.463Z,61.79
2023-02-16T17:13:58.765Z,61.83
2023-02-16T17:16:29.863Z,61.87
2023-02-16T17:18:58.296Z,61.94
2023-02-16T17:21:26.620Z,62.23
2023-02-16T17:23:55.013Z,62.22
2023-02-16T17:26:23.547Z,62.42
2023-02-16T17:28:53.715Z,62.88
2023-02-16T17:31:22.438Z,62.52
2023-02-16T17:33:51.027Z,62.91
2023-02-16T17:36:20.829Z,63.14
2023-02-16T17:38:50.004Z,63.26
2023-02-16T17:41:21.513Z,63.42
2023-02-16T17:43:50.140Z,63.51
2023-02-16T17:46:21.623Z,63.23
2023-02-16T17:48:52.256Z,62.61
2023-02-16T17:51:23.302Z,63.12
2023-02-16T17:53:51.868Z,63.35
2023-02-16T17:56:22.916Z,63.60
2023-02-16T17:58:53.034Z,63.52
2023-02-16T18:01:23.292Z,63.15
2023-02-16T18:03:53.206Z,63.73
2023-02-16T18:06:25.507Z,63.16
2023-02-16T18:08:56.471Z,62.92
2023-02-16T18:11:24.858Z,63.55
2023-02-16T18:13:53.473Z,63.35
2023-02-16T18:16:27.842Z,63.69
2023-02-16T18:18:57.458Z,63.20
2023-02-16T18:21:25.950Z,63.38
2023-02-16T18:23:54.292Z,63.08
2023-02-16T18:26:23.921Z,62.46
2023-02-16T18:28:52.280Z,63.04
2023-02-16T18:31:22.173Z,62.98
2023-02-16T18:33:50.732Z,63.51
2023-02-16T18:36:19.233Z,64.12
2023-02-16T18:38:47.687Z,64.29
2023-02-16T18:41:16.155Z,64.63
2023-02-16T18:43:44.587Z,64.56
2023-02-16T18:46:13.062Z,65.06
2023-02-16T18:48:42.905Z,64.59
2023-02-16T18:51:12.509Z,64.25
2023-02-16T18:53:41.027Z,64.69
2023-02-16T18:56:12.032Z,64.96
2023-02-16T18:58:40.760Z,64.78
2023-02-16T19:01:27.073Z,64.74
2023-02-16T19:03:56.964Z,65.20
2023-02-16T19:06:25.574Z,65.44
2023-02-16T19:08:54.007Z,65.78
2023-02-16T19:11:23.376Z,65.36
2023-02-16T19:13:51.814Z,65.46
2023-02-16T19:16:20.206Z,64.88
2023-02-16T19:18:48.664Z,64.53
2023-02-16T19:21:18.445Z,65.24
2023-02-16T19:23:46.930Z,65.32
2023-02-16T19:26:17.292Z,65.19
2023-02-16T19:28:46.062Z,65.82
2023-02-16T19:31:20.103Z,66.04
2023-02-16T19:33:49.025Z,66.98
2023-02-16T19:36:20.691Z,66.57
2023-02-16T19:38:49.660Z,66.73
2023-02-16T19:41:20.088Z,66.16
2023-02-16T19:43:49.872Z,66.26
2023-02-16T19:46:18.337Z,66.23
2023-02-16T19:48:47.206Z,66.47
2023-02-16T19:51:16.154Z,66.30
2023-02-16T19:53:46.458Z,65.56
2023-02-16T19:56:19.069Z,65.50
2023-02-16T19:58:47.834Z,65.95
2023-02-16T20:01:17.755Z,65.76
2023-02-16T20:03:46.814Z,66.39
2023-02-16T20:06:17.959Z,66.58
2023-02-16T20:08:50.276Z,66.75
2023-02-16T20:11:20.445Z,66.79
2023-02-16T20:13:49.559Z,66.21
2023-02-16T20:16:19.334Z,65.92
2023-02-16T20:18:48.245Z,66.12
2023-02-16T20:21:18.768Z,67.21
2023-02-16T20:23:49.705Z,67.01
2023-02-16T20:26:20.666Z,67.24
2023-02-16T20:28:49.986Z,67.80
2023-02-16T20:31:20.600Z,67.43
2023-02-16T20:33:49.903Z,66.80
2023-02-16T20:36:18.461Z,67.27
2023-02-16T20:38:49.241Z,66.59
2023-02-16T20:41:18.070Z,66.48
2023-02-16T20:43:46.541Z,66.28
2023-02-16T20:46:16.448Z,66.31
2023-02-16T20:48:46.582Z,67.13
2023-02-16T20:51:15.588Z,67.46
2023-02-16T20:53:44.603Z,67.43
2023-02-16T20:56:16.304Z,67.41
2023-02-16T20:58:45.871Z,67.83
2023-02-16T21:01:15.270Z,67.27
2023-02-16T21:03:44.216Z,67.24
2023-02-16T21:06:12.685Z,67.04
2023-02-16T21:08:41.142Z,66.43
2023-02-16T21:11:10.572Z,67.11
2023-02-16T21:13:41.018Z,67.35
2023-02-16T21:16:10.543Z,67.24
2023-02-16T21:18:40.574Z,67.52
2023-02-16T21:21:09.774Z,68.02
2023-02-16T21:23:38.173Z,68.45
2023-02-16T21:26:07.200Z,68.21
2023-02-16T21:28:36.021Z,67.27
2023-02-16T21:31:08.118Z,68.06
2023-02-16T21:33:37.299Z,67.61
2023-02-16T21:36:07.749Z,67.75
2023-02-16T21:38:37.540Z,67.80
2023-02-16T21:41:30.139Z,68.68
2023-02-16T21:44:02.257Z,68.52
2023-02-16T21:46:34.661Z,68.15
2023-02-16T21:49:02.548Z,68.44
2023-02-16T21:51:32.318Z,68.70
2023-02-16T21:54:01.842Z,68.30
2023-02-16T21:56:36.235Z,68.23
2023-02-16T21:59:05.752Z,68.56
2023-02-16T22:01:37.398Z,69.25
2023-02-16T22:04:07.395Z,69.42
2023-02-16T22:06:37.480Z,69.27
2023-02-16T22:09:08.305Z,69.08
2023-02-16T22:11:36.901Z,69.09
2023-02-16T22:14:05.260Z,69.68
2023-02-16T22:16:38.074Z,69.43
2023-02-16T22:19:09.200Z,69.70
2023-02-16T22:21:38.656Z,69.45
2023-02-16T22:24:07.853Z,69.11
2023-02-16T22:26:37.135Z,69.56
2023-02-16T22:29:06.839Z,70.14
2023-02-16T22:31:37.092Z,69.86
2023-02-16T22:34:07.716Z,69.80
2023-02-16T22:36:38.180Z,69.90
2023-02-16T22:39:06.701Z,69.63
2023-02-16T22:41:35.992Z,69.54
2023-02-16T22:44:04.619Z,70.03
2023-02-16T22:46:33.444Z,70.10
2023-02-16T22:49:03.309Z,70.46
2023-02-16T22:51:32.749Z,69.62
2023-02-16T22:54:03.001Z,69.42
2023-02-16T22:56:33.231Z,70.27
2023-02-16T22:59:02.294Z,70.07
2023-02-16T23:01:31.829Z,69.87
2023-02-16T23:04:02.875Z,69.77
2023-02-16T23:06:33.018Z,69.17
2023-02-16T23:09:03.209Z,69.70
2023-02-16T23:11:32.011Z,69.68
2023-02-16T23:14:00.374Z,69.06
2023-02-16T23:16:29.838Z,69.50
2023-02-16T23:18:59.797Z,69.05
2023-02-16T23:21:31.713Z,69.14
2023-02-16T23:24:01.480Z,69.03
2023-02-16T23:26:32.501Z,68.92
2023-02-16T23:29:02.636Z,68.22
2023-02-16T23:31:33.827Z,68.69
2023-02-16T23:34:02.940Z,68.72
2023-02-16T23:36:33.580Z,68.87
2023-02-16T23:39:02.047Z,69.04
2023-02-16T23:41:31.012Z,69.15
2023-02-16T23:44:01.151Z,69.22
2023-02-16T23:46:30.101Z,69.38
2023-02-16T23:48:58.568Z,69.41
2023-02-16T23:51:28.286Z,69.53
2023-02-16T23:53:58.148Z,69.68
2023-02-16T23:56:28.279Z,69.42
2023-02-16T23:58:59.016Z,70.16
